Time;durP1;ratioP1;P1;durP2;ratioP2;P2;SDS_P1;SDS_P2;PMS_P1;PMS_P2;Temp;Humidity;BMP_temperature;BMP_pressure;BME280_temperature;BME280_humidity;BME280_pressure;Samples;Min_cycle;Max_cycle;Signal;HPM_P1;HPM_P2
2022/07/13 00:00:26;;;;;;;2.40;1.80;;;15.20;99.90;;;;;;5018921;28;20501;-52
2022/07/13 00:02:54;;;;;;;2.40;2.13;;;15.20;99.90;;;;;;5013032;28;20460;-52
2022/07/13 00:05:21;;;;;;;2.10;1.93;;;15.20;99.90;;;;;;5015477;28;20460;-51
2022/07/13 00:07:48;;;;;;;3.17;2.33;;;15.20;99.90;;;;;;5019331;28;20459;-52
2022/07/13 00:10:14;;;;;;;2.50;2.00;;;15.20;99.90;;;;;;5015679;28;20542;-52
2022/07/13 00:12:41;;;;;;;2.10;1.77;;;15.20;99.90;;;;;;5011856;28;20548;-52
2022/07/13 00:15:10;;;;;;;2.33;2.17;;;15.20;1.40;;;;;;5013269;28;20863;-53
2022/07/13 00:17:36;;;;;;;4.93;3.20;;;15.20;99.90;;;;;;5020102;28;20557;-50
2022/07/13 00:20:06;;;;;;;2.10;1.90;;;15.20;99.90;;;;;;5017061;28;20475;-51
2022/07/13 00:22:32;;;;;;;2.60;2.40;;;15.20;99.90;;;;;;5010935;28;21024;-52
2022/07/13 00:24:59;;;;;;;4.93;2.17;;;15.20;99.90;;;;;;5013208;28;20447;-52
2022/07/13 00:27:26;;;;;;;2.90;2.10;;;15.30;99.90;;;;;;5010738;28;20465;-52
2022/07/13 00:29:52;;;;;;;1.97;1.87;;;15.30;99.90;;;;;;5008598;28;20479;-52
2022/07/13 00:32:19;;;;;;;2.00;1.80;;;15.30;99.90;;;;;;5007537;28;20472;-52
2022/07/13 00:34:46;;;;;;;1.77;1.67;;;15.30;99.90;;;;;;5014771;28;20468;-52
2022/07/13 00:37:14;;;;;;;3.30;2.37;;;15.30;99.90;;;;;;5017486;28;20637;-52
2022/07/13 00:39:40;;;;;;;2.40;2.27;;;15.40;99.90;;;;;;5013804;28;20463;-52
2022/07/13 00:42:07;;;;;;;1.90;1.80;;;15.40;99.90;;;;;;5007194;28;20518;-52
2022/07/13 00:44:34;;;;;;;2.10;2.00;;;15.40;99.90;;;;;;5002943;28;20492;-51
2022/07/13 00:47:00;;;;;;;2.27;2.10;;;15.40;99.90;;;;;;5013474;28;20514;-52
2022/07/13 00:49:27;;;;;;;2.00;1.90;;;15.40;1.40;;;;;;5010741;28;20488;-52
2022/07/13 00:51:53;;;;;;;5.77;2.60;;;15.40;99.90;;;;;;5014614;28;20547;-53
2022/07/13 00:54:28;;;;;;;2.53;2.10;;;15.40;99.90;;;;;;5010865;28;20468;-51
2022/07/13 00:56:55;;;;;;;1.90;1.87;;;15.40;99.90;;;;;;5010648;28;20537;-52
2022/07/13 00:59:22;;;;;;;2.47;2.27;;;15.50;99.90;;;;;;5014639;28;20491;-51
2022/07/13 01:01:48;;;;;;;2.03;1.93;;;15.40;99.90;;;;;;5010304;28;20494;-51
2022/07/13 01:04:15;;;;;;;4.60;1.50;;;15.50;99.90;;;;;;5008160;28;20468;-52
2022/07/13 01:06:42;;;;;;;2.23;2.10;;;15.50;99.90;;;;;;5012116;28;20998;-52
2022/07/13 01:09:08;;;;;;;2.03;1.93;;;15.50;1.40;;;;;;5011990;28;20464;-53
2022/07/13 01:11:36;;;;;;;1.93;1.83;;;15.50;99.90;;;;;;5008916;28;20482;-52
2022/07/13 01:14:03;;;;;;;3.30;2.20;;;15.50;99.90;;;;;;5011698;28;20459;-52
2022/07/13 01:16:30;;;;;;;2.23;2.03;;;15.50;99.90;;;;;;5010751;28;20517;-51
2022/07/13 01:18:58;;;;;;;2.40;2.20;;;15.50;99.90;;;;;;5005848;28;20867;-53
2022/07/13 01:21:25;;;;;;;2.17;1.70;;;15.60;99.90;;;;;;5013169;28;20464;-52
2022/07/13 01:23:53;;;;;;;2.60;2.50;;;15.60;99.90;;;;;;5013971;28;20879;-53
2022/07/13 01:26:20;;;;;;;2.30;2.20;;;15.60;99.90;;;;;;5012968;28;20570;-52
2022/07/13 01:28:46;;;;;;;2.57;2.37;;;15.60;99.90;;;;;;5014542;28;20961;-52
2022/07/13 01:31:25;;;;;;;3.03;2.80;;;15.60;99.90;;;;;;5013010;28;20893;-52
2022/07/13 01:33:51;;;;;;;2.23;2.13;;;15.60;99.90;;;;;;5004503;28;20469;-51
2022/07/13 01:36:18;;;;;;;2.60;2.50;;;15.60;99.90;;;;;;5014924;28;20518;-50
2022/07/13 01:38:44;;;;;;;3.60;2.37;;;15.60;99.90;;;;;;5015784;28;20482;-52
2022/07/13 01:41:12;;;;;;;2.70;2.50;;;15.60;99.90;;;;;;5013959;28;20490;-52
2022/07/13 01:43:39;;;;;;;3.17;2.87;;;15.60;99.90;;;;;;5005261;28;20486;-53
2022/07/13 01:46:06;;;;;;;2.30;2.20;;;15.60;99.90;;;;;;5007446;28;20992;-53
2022/07/13 01:48:33;;;;;;;2.83;2.53;;;15.60;99.90;;;;;;5004135;28;20458;-54
2022/07/13 01:50:59;;;;;;;5.90;2.63;;;15.60;99.90;;;;;;5015693;28;20537;-53
2022/07/13 01:53:26;;;;;;;4.93;2.30;;;15.70;99.90;;;;;;5004433;28;20496;-53
2022/07/13 01:55:53;;;;;;;1.90;1.80;;;15.70;99.90;;;;;;5015691;28;20505;-54
2022/07/13 01:58:20;;;;;;;2.10;1.90;;;15.70;99.90;;;;;;5007277;28;20479;-53
2022/07/13 02:00:47;;;;;;;2.63;2.47;;;15.80;99.90;;;;;;5012197;28;21070;-52
2022/07/13 02:03:14;;;;;;;2.40;2.20;;;15.70;99.90;;;;;;5024301;23;21109;-53
2022/07/13 02:05:40;;;;;;;2.97;2.50;;;15.80;99.90;;;;;;5009738;28;20548;-52
2022/07/13 02:08:07;;;;;;;5.20;2.03;;;15.70;99.90;;;;;;5010543;28;20456;-53
2022/07/13 02:10:37;;;;;;;1.80;1.70;;;15.80;99.90;;;;;;5012095;28;20859;-53
2022/07/13 02:13:04;;;;;;;6.27;2.67;;;15.80;99.90;;;;;;5009697;28;20480;-53
2022/07/13 02:15:32;;;;;;;2.37;2.17;;;15.80;99.90;;;;;;5008342;28;20965;-53
2022/07/13 02:17:58;;;;;;;2.63;2.43;;;15.80;99.90;;;;;;5009268;28;20486;-53
2022/07/13 02:20:25;;;;;;;2.60;2.27;;;15.70;99.90;;;;;;5012668;28;20878;-53
2022/07/13 02:22:52;;;;;;;2.50;2.20;;;15.70;99.90;;;;;;5010675;28;20463;-53
2022/07/13 02:25:18;;;;;;;6.00;2.37;;;15.70;99.90;;;;;;5006557;28;20464;-53
2022/07/13 02:27:46;;;;;;;1.80;1.70;;;15.70;99.90;;;;;;5010248;28;20483;-52
2022/07/13 02:30:14;;;;;;;2.30;2.20;;;15.70;99.90;;;;;;5006983;28;20471;-53
2022/07/13 02:32:43;;;;;;;2.23;2.13;;;15.80;99.90;;;;;;5007583;28;20472;-53
2022/07/13 02:35:11;;;;;;;1.93;1.83;;;15.70;99.90;;;;;;5008431;28;21022;-52
2022/07/13 02:37:38;;;;;;;7.70;2.50;;;15.80;99.90;;;;;;5018588;28;20510;-52
2022/07/13 02:40:06;;;;;;;3.40;2.20;;;15.80;99.90;;;;;;5009771;28;20491;-52
2022/07/13 02:42:32;;;;;;;2.67;2.40;;;15.80;99.90;;;;;;5006404;28;20546;-53
2022/07/13 02:44:59;;;;;;;3.27;2.30;;;15.80;99.90;;;;;;5006279;28;20545;-53
2022/07/13 02:47:26;;;;;;;2.20;2.07;;;15.80;99.90;;;;;;5014383;28;20460;-53
2022/07/13 02:49:53;;;;;;;2.03;1.93;;;15.80;99.90;;;;;;5014005;28;20459;-53
2022/07/13 02:52:20;;;;;;;7.23;2.00;;;15.70;99.90;;;;;;5015984;28;20515;-53
2022/07/13 02:54:47;;;;;;;2.03;1.83;;;15.70;99.90;;;;;;5003490;28;20455;-53
2022/07/13 02:57:13;;;;;;;2.60;2.40;;;15.80;99.90;;;;;;5013195;28;20503;-53
2022/07/13 02:59:40;;;;;;;2.17;2.07;;;15.80;99.90;;;;;;5012562;28;20506;-53
2022/07/13 03:02:07;;;;;;;2.73;2.30;;;15.80;99.90;;;;;;5011759;28;21070;-53
2022/07/13 03:04:35;;;;;;;2.77;1.80;;;15.80;99.90;;;;;;5006684;28;20849;-52
2022/07/13 03:07:03;;;;;;;2.80;1.83;;;15.80;99.90;;;;;;5015517;28;20493;-53
2022/07/13 03:09:30;;;;;;;1.97;1.87;;;15.80;99.90;;;;;;4995696;28;20460;-52
2022/07/13 03:11:56;;;;;;;2.20;2.10;;;15.80;99.90;;;;;;5006837;28;20507;-53
2022/07/13 03:14:23;;;;;;;3.07;1.80;;;15.80;99.90;;;;;;5012297;28;20510;-54
2022/07/13 03:16:49;;;;;;;3.80;2.33;;;15.80;99.90;;;;;;5009053;28;20537;-54
2022/07/13 03:19:16;;;;;;;2.20;2.10;;;15.80;99.90;;;;;;5016843;28;20488;-53
2022/07/13 03:21:43;;;;;;;2.97;2.70;;;15.90;99.90;;;;;;5011791;28;20554;-54
2022/07/13 03:24:10;;;;;;;2.07;1.87;;;15.80;99.90;;;;;;5008955;28;20476;-52
2022/07/13 03:26:37;;;;;;;3.27;1.60;;;15.80;99.90;;;;;;5001182;28;20465;-54
2022/07/13 03:29:05;;;;;;;3.53;1.80;;;15.80;99.90;;;;;;5005293;28;20455;-52
2022/07/13 03:31:31;;;;;;;3.13;2.30;;;15.80;99.90;;;;;;5010838;28;20973;-54
2022/07/13 03:33:58;;;;;;;2.00;1.90;;;15.80;99.90;;;;;;5016424;28;20884;-54
2022/07/13 03:36:24;;;;;;;6.07;2.17;;;15.80;99.90;;;;;;5010071;28;20503;-53
2022/07/13 03:38:52;;;;;;;2.20;2.10;;;15.90;99.90;;;;;;5013498;28;20553;-53
2022/07/13 03:41:19;;;;;;;2.10;1.90;;;15.80;99.90;;;;;;4995259;28;20468;-53
2022/07/13 03:43:46;;;;;;;2.20;2.00;;;15.90;99.90;;;;;;5008987;28;20459;-55
2022/07/13 03:46:13;;;;;;;2.30;1.77;;;15.90;99.90;;;;;;4999917;28;20463;-53
2022/07/13 03:48:39;;;;;;;1.97;1.87;;;15.90;99.90;;;;;;5011248;28;20464;-53
2022/07/13 03:51:06;;;;;;;2.27;2.17;;;15.90;99.90;;;;;;5011932;28;20463;-53
2022/07/13 03:53:33;;;;;;;2.03;1.93;;;15.90;99.90;;;;;;5011930;28;20523;-53
2022/07/13 03:55:59;;;;;;;1.83;1.83;;;16.00;99.90;;;;;;5013025;28;20470;-53
2022/07/13 03:58:27;;;;;;;2.33;2.23;;;16.00;99.90;;;;;;5010734;28;20523;-52
2022/07/13 04:00:55;;;;;;;1.70;1.60;;;16.00;99.90;;;;;;5006373;28;20491;-53
2022/07/13 04:03:21;;;;;;;5.83;2.10;;;16.00;99.90;;;;;;5006738;28;20557;-53
2022/07/13 04:05:48;;;;;;;2.40;2.20;;;16.00;99.90;;;;;;5003007;28;20567;-53
2022/07/13 04:08:14;;;;;;;2.03;1.93;;;16.10;99.90;;;;;;5009618;28;20514;-53
2022/07/13 04:10:41;;;;;;;2.70;2.37;;;16.10;99.90;;;;;;5012653;28;20452;-53
2022/07/13 04:13:08;;;;;;;4.10;2.00;;;16.10;99.90;;;;;;5010927;28;20503;-54
2022/07/13 04:15:35;;;;;;;1.60;1.60;;;16.20;99.90;;;;;;5017708;28;20463;-53
2022/07/13 04:18:02;;;;;;;2.13;2.03;;;16.20;99.90;;;;;;5010998;28;20857;-53
2022/07/13 04:20:29;;;;;;;2.23;2.13;;;16.30;99.90;;;;;;5012656;28;20467;-52
2022/07/13 04:22:55;;;;;;;2.17;2.07;;;16.30;99.90;;;;;;5009973;28;20533;-53
2022/07/13 04:25:22;;;;;;;5.43;2.43;;;16.30;99.90;;;;;;5013474;28;20476;-53
2022/07/13 04:27:48;;;;;;;1.93;1.83;;;16.40;99.90;;;;;;5008246;28;21124;-53
2022/07/13 04:30:15;;;;;;;5.50;2.40;;;16.40;99.90;;;;;;5012398;28;20818;-52
2022/07/13 04:32:43;;;;;;;2.40;2.30;;;16.40;99.90;;;;;;5002594;28;20577;-54
2022/07/13 04:35:10;;;;;;;1.97;1.87;;;16.40;99.90;;;;;;5011803;28;20471;-54
2022/07/13 04:37:36;;;;;;;2.23;1.73;;;16.40;99.90;;;;;;5003992;28;20822;-55
2022/07/13 04:40:04;;;;;;;4.60;2.23;;;16.50;99.90;;;;;;5010833;28;20977;-53
2022/07/13 04:42:30;;;;;;;2.23;1.97;;;16.50;99.90;;;;;;5006697;28;21102;-54
2022/07/13 04:44:57;;;;;;;3.33;1.77;;;16.50;99.90;;;;;;5012965;28;20448;-53
2022/07/13 04:47:24;;;;;;;2.00;1.90;;;16.50;99.90;;;;;;5001884;28;20491;-53
2022/07/13 04:49:52;;;;;;;1.80;1.70;;;16.60;99.90;;;;;;5009337;28;20455;-54
2022/07/13 04:52:18;;;;;;;1.93;1.93;;;16.60;99.90;;;;;;5007529;28;20905;-55
2022/07/13 04:54:45;;;;;;;4.30;2.00;;;16.70;99.90;;;;;;5010984;28;20542;-55
2022/07/13 04:57:12;;;;;;;3.67;2.30;;;16.70;99.90;;;;;;5007677;28;20577;-54
2022/07/13 04:59:38;;;;;;;3.73;2.00;;;16.80;99.90;;;;;;4999350;28;20567;-55
2022/07/13 05:02:05;;;;;;;4.80;2.30;;;16.80;99.90;;;;;;5009212;28;20918;-54
2022/07/13 05:04:32;;;;;;;4.43;2.17;;;16.90;99.90;;;;;;5016549;28;20928;-54
2022/07/13 05:07:00;;;;;;;10.10;2.03;;;16.90;99.90;;;;;;5008746;28;20510;-54
2022/07/13 05:09:27;;;;;;;2.67;2.47;;;16.90;99.90;;;;;;5009406;28;20460;-54
2022/07/13 05:11:54;;;;;;;4.13;1.93;;;17.00;99.90;;;;;;5008865;28;20920;-54
2022/07/13 05:14:20;;;;;;;1.43;1.40;;;17.10;99.90;;;;;;5006495;28;20463;-54
2022/07/13 05:16:47;;;;;;;3.13;2.33;;;17.10;99.90;;;;;;5007814;28;20460;-54
2022/07/13 05:19:13;;;;;;;4.50;2.70;;;17.20;99.90;;;;;;5009435;28;20806;-53
2022/07/13 05:21:40;;;;;;;1.77;1.67;;;17.20;99.90;;;;;;5009911;28;20488;-55
2022/07/13 05:24:08;;;;;;;2.13;1.93;;;17.20;99.90;;;;;;5010915;28;20529;-54
2022/07/13 05:26:36;;;;;;;3.13;1.80;;;17.30;99.90;;;;;;5008927;28;20602;-55
2022/07/13 05:29:04;;;;;;;3.57;1.80;;;17.30;99.90;;;;;;5011640;28;20984;-54
2022/07/13 05:31:31;;;;;;;3.30;2.20;;;17.30;99.90;;;;;;5009527;28;20475;-53
2022/07/13 05:33:57;;;;;;;8.20;1.73;;;17.30;99.90;;;;;;5009537;28;20546;-54
2022/07/13 05:36:24;;;;;;;10.00;1.70;;;17.40;99.90;;;;;;5006500;28;20537;-54
2022/07/13 05:38:51;;;;;;;3.07;1.70;;;17.40;99.90;;;;;;5014284;28;20478;-54
2022/07/13 05:41:19;;;;;;;2.30;2.10;;;17.40;99.90;;;;;;5013414;28;20495;-53
2022/07/13 05:43:46;;;;;;;1.90;1.80;;;17.40;99.90;;;;;;5011047;28;20444;-54
2022/07/13 05:46:12;;;;;;;1.83;1.70;;;17.50;99.90;;;;;;4999428;28;20458;-54
2022/07/13 05:48:39;;;;;;;7.53;1.83;;;17.50;99.90;;;;;;5009427;28;20455;-54
2022/07/13 05:51:06;;;;;;;2.50;2.23;;;17.60;99.90;;;;;;5009346;28;20518;-53
2022/07/13 05:53:32;;;;;;;2.30;2.10;;;17.60;99.90;;;;;;5007297;28;20992;-53
2022/07/13 05:55:59;;;;;;;5.83;1.77;;;17.60;99.90;;;;;;5009743;28;20809;-53
2022/07/13 05:58:27;;;;;;;7.20;2.07;;;17.70;99.90;;;;;;4998847;28;20997;-55
2022/07/13 06:00:54;;;;;;;2.40;2.20;;;17.80;99.90;;;;;;5009165;28;20491;-55
2022/07/13 06:03:20;;;;;;;4.77;2.30;;;17.90;99.90;;;;;;5006965;28;20491;-54
2022/07/13 06:05:47;;;;;;;2.47;2.30;;;17.90;99.90;;;;;;5005934;28;20953;-53
2022/07/13 06:08:13;;;;;;;2.03;1.90;;;18.00;99.90;;;;;;5004476;28;20814;-53
2022/07/13 06:10:40;;;;;;;7.33;2.40;;;18.10;99.90;;;;;;5008853;28;20526;-53
2022/07/13 06:13:07;;;;;;;2.93;2.10;;;18.20;99.90;;;;;;4999305;28;20854;-54
2022/07/13 06:15:35;;;;;;;2.40;1.90;;;18.30;99.90;;;;;;5005719;28;20840;-53
2022/07/13 06:18:01;;;;;;;1.90;1.80;;;18.30;99.90;;;;;;5010690;28;20521;-55
2022/07/13 06:20:28;;;;;;;3.33;1.60;;;18.40;99.90;;;;;;5008298;28;20496;-54
2022/07/13 06:23:14;;;;;;;2.10;2.00;;;18.50;99.90;;;;;;5010542;28;20915;-54
2022/07/13 06:25:41;;;;;;;1.83;1.73;;;18.60;99.90;;;;;;5009771;28;20500;-54
2022/07/13 06:28:08;;;;;;;1.53;1.53;;;18.70;99.90;;;;;;5012090;28;20464;-54
2022/07/13 06:30:36;;;;;;;2.90;1.60;;;18.80;99.90;;;;;;5016508;28;20468;-55
2022/07/13 06:33:03;;;;;;;9.57;1.57;;;18.80;99.90;;;;;;5018025;28;20803;-55
2022/07/13 06:35:31;;;;;;;7.93;1.73;;;18.90;99.90;;;;;;5017323;28;20941;-53
2022/07/13 06:37:58;;;;;;;2.40;1.80;;;19.00;99.90;;;;;;5016749;28;20456;-55
2022/07/13 06:40:24;;;;;;;4.03;1.80;;;19.10;99.90;;;;;;5003284;28;20461;-54
2022/07/13 06:42:51;;;;;;;7.87;2.63;;;19.20;99.90;;;;;;5009606;28;20467;-54
2022/07/13 06:45:18;;;;;;;6.10;1.50;;;19.30;99.90;;;;;;5004483;28;20897;-55
2022/07/13 06:47:46;;;;;;;5.10;1.50;;;19.40;99.90;;;;;;5008376;28;20884;-53
2022/07/13 06:50:12;;;;;;;3.07;1.60;;;19.50;99.90;;;;;;5003003;28;20460;-54
2022/07/13 06:52:40;;;;;;;3.60;2.50;;;19.60;99.90;;;;;;5004810;28;20549;-57
2022/07/13 06:55:08;;;;;;;2.40;1.53;;;19.70;99.90;;;;;;5009194;28;20961;-54
2022/07/13 06:57:35;;;;;;;1.87;1.77;;;19.80;99.90;;;;;;5007524;28;20470;-54
2022/07/13 07:00:02;;;;;;;9.63;1.60;;;19.90;99.90;;;;;;5000938;28;21015;-53
2022/07/13 07:02:28;;;;;;;1.50;1.40;;;20.00;99.90;;;;;;5001207;28;20496;-54
2022/07/13 07:04:56;;;;;;;2.53;1.80;;;20.10;99.90;;;;;;5009517;28;20467;-54
2022/07/13 07:07:23;;;;;;;2.47;1.70;;;20.20;22.00;;;;;;5008829;28;20525;-54
2022/07/13 07:09:50;;;;;;;1.63;1.57;;;20.30;24.20;;;;;;5015502;28;21007;-54
2022/07/13 07:12:17;;;;;;;8.27;2.10;;;20.40;32.80;;;;;;5008277;28;20510;-55
2022/07/13 07:14:43;;;;;;;1.67;1.57;;;20.40;30.60;;;;;;5008469;28;20467;-55
2022/07/13 07:17:10;;;;;;;2.53;1.40;;;20.50;45.10;;;;;;5008534;28;20981;-54
2022/07/13 07:19:37;;;;;;;1.50;1.50;;;20.60;38.70;;;;;;5010619;28;20574;-53
2022/07/13 07:22:05;;;;;;;2.50;1.90;;;20.70;46.50;;;;;;5007162;28;20479;-53
2022/07/13 07:24:31;;;;;;;2.60;2.10;;;20.80;44.40;;;;;;5013676;28;20460;-52
2022/07/13 07:26:58;;;;;;;2.40;1.70;;;20.80;45.30;;;;;;5014108;28;20478;-54
2022/07/13 07:29:25;;;;;;;2.00;1.90;;;20.90;50.20;;;;;;5014214;28;20436;-54
2022/07/13 07:31:51;;;;;;;1.30;1.30;;;21.00;53.60;;;;;;5007851;28;20900;-53
2022/07/13 07:34:18;;;;;;;1.57;1.50;;;21.10;54.80;;;;;;5011676;28;20464;-53
2022/07/13 07:36:44;;;;;;;1.63;1.63;;;21.10;63.30;;;;;;5017834;28;20455;-54
2022/07/13 07:39:13;;;;;;;2.63;1.83;;;21.20;58.70;;;;;;5013268;28;20570;-54
2022/07/13 07:41:40;;;;;;;2.50;1.60;;;21.20;65.20;;;;;;5004827;28;20606;-53
2022/07/13 07:44:06;;;;;;;7.70;1.80;;;21.30;62.10;;;;;;5011964;28;20957;-53
2022/07/13 07:46:33;;;;;;;3.47;1.80;;;21.30;60.40;;;;;;5006467;28;20542;-53
2022/07/13 07:48:59;;;;;;;6.33;2.13;;;21.40;63.40;;;;;;5011853;28;20521;-54
2022/07/13 07:51:26;;;;;;;1.70;1.70;;;21.40;63.80;;;;;;5008818;28;20553;-53
2022/07/13 07:53:53;;;;;;;2.00;1.90;;;21.50;71.20;;;;;;5008365;28;20491;-53
2022/07/13 07:56:20;;;;;;;4.93;2.70;;;21.60;69.10;;;;;;5009717;28;20448;-53
2022/07/13 07:58:47;;;;;;;1.53;1.30;;;21.60;74.60;;;;;;5010136;28;20804;-53
2022/07/13 08:01:14;;;;;;;1.40;1.40;;;21.70;72.40;;;;;;5009541;28;20474;-54
2022/07/13 08:03:40;;;;;;;2.10;1.40;;;21.70;82.40;;;;;;5019351;23;20533;-52
2022/07/13 08:06:07;;;;;;;2.60;2.27;;;21.70;84.90;;;;;;4995109;28;20482;-53
2022/07/13 08:08:33;;;;;;;7.60;1.77;;;21.70;81.50;;;;;;4993210;28;20566;-52
2022/07/13 08:11:03;;;;;;;2.27;2.07;;;21.70;81.00;;;;;;4992900;28;20555;-53
2022/07/13 08:13:31;;;;;;;1.67;1.57;;;21.70;79.70;;;;;;4994316;28;20488;-53
2022/07/13 08:15:58;;;;;;;2.90;1.70;;;21.70;81.50;;;;;;4997075;28;20461;-53
2022/07/13 08:18:24;;;;;;;2.00;1.90;;;21.80;83.70;;;;;;4986225;28;20465;-54
2022/07/13 08:20:51;;;;;;;1.97;1.87;;;21.80;86.50;;;;;;4984117;28;20520;-53
2022/07/13 08:26:01;;;;;;;2.80;1.90;;;21.90;84.50;;;;;;4988076;28;20467;-53
2022/07/13 08:28:28;;;;;;;6.00;3.20;;;22.00;81.30;;;;;;4989711;28;20465;-55
2022/07/13 08:30:56;;;;;;;3.03;1.30;;;22.10;91.20;;;;;;4984107;28;20681;-53
2022/07/13 08:38:34;;;;;;;3.23;1.77;;;22.20;94.30;;;;;;4989905;28;20484;-53
2022/07/13 08:39:08;;;;;;;1.70;1.40;;;22.40;99.90;;;;;;4985809;28;20547;-53
2022/07/13 08:41:35;;;;;;;2.13;2.03;;;22.50;99.90;;;;;;4990962;28;20471;-54
2022/07/13 08:44:03;;;;;;;1.73;1.63;;;22.60;99.90;;;;;;4987109;28;20508;-54
2022/07/13 08:46:31;;;;;;;1.80;1.70;;;22.80;99.90;;;;;;4989190;28;20558;-53
2022/07/13 08:48:58;;;;;;;2.00;1.80;;;22.80;99.90;;;;;;4989090;28;20452;-53
2022/07/13 08:51:25;;;;;;;1.80;1.70;;;23.00;99.90;;;;;;4988564;28;20776;-53
2022/07/13 08:53:53;;;;;;;2.00;1.90;;;23.10;99.90;;;;;;4988763;28;20518;-55
2022/07/13 08:56:21;;;;;;;2.10;1.70;;;23.20;99.90;;;;;;4982684;28;20816;-53
2022/07/13 08:58:47;;;;;;;10.00;2.00;;;23.30;99.90;;;;;;4986245;28;20981;-54
2022/07/13 09:01:14;;;;;;;1.50;1.40;;;23.40;99.90;;;;;;4995480;28;20465;-54
2022/07/13 09:03:43;;;;;;;2.20;2.00;;;23.50;99.90;;;;;;4989397;28;20586;-53
2022/07/13 09:06:30;;;;;;;1.93;1.87;;;23.60;99.90;;;;;;4989010;28;20560;-53
2022/07/13 09:08:56;;;;;;;2.17;2.07;;;23.70;99.90;;;;;;4980219;28;20460;-52
2022/07/13 09:11:24;;;;;;;2.90;1.70;;;23.80;99.90;;;;;;4989029;28;20915;-53
2022/07/13 09:13:51;;;;;;;2.20;2.00;;;24.00;99.90;;;;;;4993296;28;20484;-53
2022/07/13 09:16:19;;;;;;;2.60;2.40;;;24.00;99.90;;;;;;4987217;28;20464;-55
2022/07/13 09:18:49;;;;;;;1.90;1.80;;;24.10;99.90;;;;;;4986118;28;20512;-53
2022/07/13 09:21:16;;;;;;;3.83;1.80;;;24.20;99.90;;;;;;4989246;28;20523;-53
2022/07/13 09:23:43;;;;;;;2.23;2.20;;;24.30;99.90;;;;;;4990027;28;20511;-54
2022/07/13 09:26:10;;;;;;;2.90;1.70;;;24.30;99.90;;;;;;4984430;28;20469;-55
2022/07/13 09:28:43;;;;;;;1.80;1.70;;;24.30;99.90;;;;;;4989717;28;20518;-52
2022/07/13 09:31:10;;;;;;;9.37;2.00;;;24.40;99.90;;;;;;4994366;28;20471;-53
2022/07/13 09:33:38;;;;;;;2.70;1.60;;;24.50;99.90;;;;;;4990859;28;21014;-54
2022/07/13 09:36:14;;;;;;;3.33;2.13;;;24.50;99.90;;;;;;4982626;28;20462;-53
2022/07/13 09:38:42;;;;;;;1.70;1.60;;;24.50;99.90;;;;;;4989976;28;20465;-53
2022/07/13 09:41:21;;;;;;;12.20;2.70;;;24.60;99.90;;;;;;4988839;28;21009;-53
2022/07/13 09:46:54;;;;;;;3.47;1.40;;;24.80;99.90;;;;;;4986950;28;21345;-54
2022/07/13 09:49:30;;;;;;;2.90;1.37;;;24.90;99.90;;;;;;4989951;28;20483;-53
2022/07/13 09:51:59;;;;;;;2.90;1.10;;;24.90;99.90;;;;;;4989142;28;20563;-54
2022/07/13 09:54:28;;;;;;;8.53;1.40;;;25.00;99.90;;;;;;4982955;28;20465;-53
2022/07/13 09:56:58;;;;;;;1.50;1.40;;;25.20;99.90;;;;;;4987816;28;20833;-53
2022/07/13 09:59:25;;;;;;;1.43;1.33;;;25.20;99.90;;;;;;4985527;28;20575;-55
2022/07/13 10:01:52;;;;;;;1.47;1.37;;;25.30;99.90;;;;;;4988550;28;20464;-53
2022/07/13 10:04:20;;;;;;;1.33;1.23;;;25.40;99.90;;;;;;4989563;28;20541;-53
2022/07/13 10:06:47;;;;;;;1.57;1.47;;;25.40;99.90;;;;;;4979839;28;20539;-53
2022/07/13 10:09:17;;;;;;;1.50;1.40;;;25.40;99.90;;;;;;4990493;28;20531;-52
2022/07/13 10:11:44;;;;;;;5.93;1.73;;;25.50;99.90;;;;;;4987824;28;20547;-53
2022/07/13 10:14:10;;;;;;;1.90;1.17;;;25.50;99.90;;;;;;4988042;28;20851;-54
2022/07/13 10:16:37;;;;;;;3.43;1.30;;;25.50;99.90;;;;;;4988459;28;20550;-53
2022/07/13 10:19:07;;;;;;;3.00;1.73;;;25.60;99.90;;;;;;4985625;28;20465;-54
2022/07/13 10:21:50;;;;;;;1.50;1.40;;;25.70;99.90;;;;;;4987304;28;20454;-55
2022/07/13 10:24:18;;;;;;;1.50;1.47;;;25.80;99.90;;;;;;4985391;28;20502;-54
2022/07/13 10:26:48;;;;;;;2.43;1.50;;;25.80;99.90;;;;;;4989104;28;21234;-54
2022/07/13 10:29:15;;;;;;;1.73;1.30;;;25.80;99.90;;;;;;4989746;28;20465;-54
2022/07/13 10:31:43;;;;;;;1.47;1.27;;;25.90;99.90;;;;;;4984377;28;20464;-53
2022/07/13 10:34:12;;;;;;;1.57;1.47;;;25.90;99.90;;;;;;4988909;28;22234;-52
2022/07/13 10:36:56;;;;;;;4.00;1.60;;;26.00;99.90;;;;;;4987380;28;20456;-55
2022/07/13 10:39:25;;;;;;;5.60;1.50;;;26.10;99.90;;;;;;4984674;28;20577;-53
2022/07/13 10:42:00;;;;;;;1.20;1.10;;;26.10;99.90;;;;;;4988905;28;20461;-53
2022/07/13 10:44:36;;;;;;;6.00;1.60;;;26.10;99.90;;;;;;4977236;28;20464;-54
2022/07/13 10:47:04;;;;;;;1.67;1.30;;;26.10;99.90;;;;;;4988594;28;20972;-52
2022/07/13 10:49:45;;;;;;;1.40;1.30;;;26.00;1.40;;;;;;4978304;28;20924;-52
2022/07/13 10:52:49;;;;;;;1.27;1.23;;;26.00;99.90;;;;;;4984306;28;20465;-54
2022/07/13 10:55:30;;;;;;;7.70;1.47;;;26.00;99.90;;;;;;4985908;28;20482;-55
2022/07/13 10:57:57;;;;;;;1.20;1.20;;;26.00;99.90;;;;;;4991490;28;20472;-53
2022/07/13 11:00:43;;;;;;;1.47;1.37;;;25.90;99.90;;;;;;4988299;28;20581;-54
2022/07/13 11:03:24;;;;;;;1.27;1.20;;;25.90;99.90;;;;;;4988054;28;20877;-54
2022/07/13 11:06:06;;;;;;;1.33;1.10;;;25.80;99.90;;;;;;4985123;28;20457;-55
2022/07/13 11:08:33;;;;;;;3.53;1.10;;;25.80;99.90;;;;;;4990714;28;20461;-54
2022/07/13 11:11:12;;;;;;;0.90;0.90;;;25.70;99.90;;;;;;4989862;28;20942;-53
2022/07/13 11:13:38;;;;;;;2.43;1.63;;;25.70;99.90;;;;;;4987924;28;20566;-54
2022/07/13 11:16:07;;;;;;;3.70;1.80;;;25.70;99.90;;;;;;4986061;28;20483;-53
2022/07/13 11:18:35;;;;;;;1.77;1.37;;;25.60;99.90;;;;;;4992468;28;20477;-54
2022/07/13 11:21:04;;;;;;;1.57;1.47;;;25.60;99.90;;;;;;4990218;28;20519;-53
2022/07/13 11:26:29;;;;;;;5.50;1.30;;;25.50;99.90;;;;;;4986374;28;20455;-53
2022/07/13 11:29:10;;;;;;;1.50;1.40;;;25.60;99.90;;;;;;4984276;28;20810;-54
2022/07/13 11:31:37;;;;;;;2.47;1.13;;;25.70;99.90;;;;;;4987342;28;21236;-53
2022/07/13 11:34:04;;;;;;;1.30;1.30;;;25.60;99.90;;;;;;4989668;28;20978;-54
2022/07/13 11:36:31;;;;;;;9.03;1.43;;;25.60;99.90;;;;;;4989702;28;20461;-55
2022/07/13 11:38:58;;;;;;;3.53;2.23;;;25.70;99.90;;;;;;4986780;28;20852;-53
2022/07/13 11:41:26;;;;;;;1.57;1.33;;;25.60;99.90;;;;;;4987200;28;20513;-52
2022/07/13 11:43:54;;;;;;;3.23;1.60;;;25.60;99.90;;;;;;4996286;28;20492;-54
2022/07/13 11:46:24;;;;;;;5.43;1.70;;;25.70;99.90;;;;;;4991752;28;20904;-53
2022/07/13 11:49:01;;;;;;;9.10;1.80;;;25.60;99.90;;;;;;4984770;28;20457;-55
2022/07/13 11:51:28;;;;;;;5.53;1.70;;;25.70;99.90;;;;;;4992697;28;20456;-53
2022/07/13 11:53:54;;;;;;;2.10;2.00;;;25.60;99.90;;;;;;4993203;28;20515;-54
2022/07/13 11:56:22;;;;;;;5.03;1.53;;;25.70;99.90;;;;;;4990760;28;20460;-53
2022/07/13 11:58:50;;;;;;;1.73;1.47;;;25.80;99.90;;;;;;4995028;28;20464;-53
2022/07/13 12:01:18;;;;;;;2.00;1.90;;;25.80;99.90;;;;;;4988193;28;20488;-53
2022/07/13 12:03:49;;;;;;;1.40;1.40;;;25.90;99.90;;;;;;4984026;28;20488;-54
2022/07/13 12:06:16;;;;;;;3.47;1.70;;;26.00;99.90;;;;;;4982035;28;20465;-52
2022/07/13 12:08:44;;;;;;;2.27;1.80;;;26.00;99.90;;;;;;4991044;28;20472;-53
2022/07/13 12:11:14;;;;;;;2.73;1.50;;;26.10;99.90;;;;;;4991350;28;20449;-53
2022/07/13 12:13:42;;;;;;;1.37;1.37;;;26.20;99.90;;;;;;4991095;28;20484;-54
2022/07/13 12:16:14;;;;;;;1.50;1.40;;;26.30;99.90;;;;;;4987652;28;20984;-55
2022/07/13 12:19:01;;;;;;;1.83;1.70;;;26.50;99.90;;;;;;4985390;28;20511;-53
2022/07/13 12:21:27;;;;;;;5.97;1.70;;;26.60;99.90;;;;;;4984545;28;20489;-53
2022/07/13 12:23:54;;;;;;;2.87;1.60;;;26.90;99.90;;;;;;4992193;28;20484;-53
2022/07/13 12:26:21;;;;;;;1.83;1.50;;;27.10;99.90;;;;;;4984832;28;20464;-54
2022/07/13 12:28:48;;;;;;;1.40;1.30;;;27.10;99.90;;;;;;4983134;28;20473;-52
2022/07/13 12:31:20;;;;;;;3.07;1.33;;;27.20;99.90;;;;;;4991068;28;20511;-53
2022/07/13 12:33:50;;;;;;;1.23;1.13;;;27.40;99.90;;;;;;4987217;28;20512;-53
2022/07/13 12:36:19;;;;;;;3.23;1.20;;;27.60;99.90;;;;;;4990339;28;20560;-55
2022/07/13 12:38:57;;;;;;;8.77;1.10;;;27.70;99.90;;;;;;4984925;28;20465;-54
2022/07/13 12:41:28;;;;;;;2.93;1.33;;;27.70;99.90;;;;;;4985574;28;20554;-53
2022/07/13 12:43:56;;;;;;;1.10;1.00;;;27.80;99.90;;;;;;4992773;28;20535;-54
2022/07/13 12:46:25;;;;;;;1.33;1.03;;;28.00;99.90;;;;;;4987439;28;20463;-54
2022/07/13 12:49:02;;;;;;;1.03;1.03;;;28.00;99.90;;;;;;4990276;28;20477;-54
2022/07/13 12:51:45;;;;;;;2.83;1.10;;;27.90;99.90;;;;;;4992240;28;20472;-54
2022/07/13 12:54:12;;;;;;;2.83;1.07;;;27.90;99.90;;;;;;4986660;28;20469;-52
2022/07/13 12:56:50;;;;;;;1.10;1.00;;;27.70;99.90;;;;;;4990629;28;20825;-54
2022/07/13 12:59:20;;;;;;;11.90;1.40;;;27.70;99.90;;;;;;4982250;28;20475;-53
2022/07/13 13:01:49;;;;;;;1.67;1.03;;;27.70;99.90;;;;;;4989162;28;21182;-54
2022/07/13 13:04:16;;;;;;;0.90;0.90;;;27.70;99.90;;;;;;4980289;28;20476;-53